Time;durP1;ratioP1;P1;durP2;ratioP2;P2;SDS_P1;SDS_P2;PMS_P1;PMS_P2;Temp;Humidity;BMP_temperature;BMP_pressure;BME280_temperature;BME280_humidity;BME280_pressure;Samples;Min_cycle;Max_cycle;Signal;HPM_P1;HPM_P2
2021/12/28 00:00:42;;;;;;;20.60;9.38;;;;;;;;;;4883600;29;20028;-91
2021/12/28 00:03:07;;;;;;;16.58;8.77;;;;;;;;;;4882847;29;20025;-91
2021/12/28 00:05:33;;;;;;;16.98;9.65;;;;;;;;;;4883471;29;20025;-89
2021/12/28 00:07:58;;;;;;;14.73;8.75;;;;;;;;;;4882208;29;20462;-85
2021/12/28 00:10:39;;;;;;;17.58;9.25;;;;;;;;;;5183601;23;20040;-84
2021/12/28 00:13:09;;;;;;;16.50;8.75;;;;;;;;;;4905251;29;20028;-86
2021/12/28 00:15:48;;;;;;;17.83;9.23;;;;;;;;;;4904701;29;20118;-84
2021/12/28 00:18:18;;;;;;;18.85;9.50;;;;;;;;;;4987260;23;20061;-84
2021/12/28 00:20:55;;;;;;;17.13;8.25;;;;;;;;;;4900498;29;20425;-81
2021/12/28 00:23:25;;;;;;;16.55;7.85;;;;;;;;;;4897148;29;20029;-84
2021/12/28 00:25:52;;;;;;;13.05;7.32;;;;;;;;;;4896460;29;20021;-82
2021/12/28 00:28:20;;;;;;;14.63;7.68;;;;;;;;;;4895217;29;20036;-82
2021/12/28 00:30:50;;;;;;;20.17;8.25;;;;;;;;;;4899914;29;20055;-84
2021/12/28 00:33:15;;;;;;;;;;;;;;;;;;4905443;29;20024;-85
2021/12/28 00:35:42;;;;;;;15.07;6.78;;;;;;;;;;5268688;23;19908;-83
2021/12/28 00:40:47;;;;;;;13.30;7.10;;;;;;;;;;5868255;23;20027;-86
2021/12/28 00:53:35;;;;;;;14.55;7.55;;;;;;;;;;5449504;23;21019;-81
2021/12/28 01:01:08;;;;;;;14.50;7.25;;;;;;;;;;5161789;23;20098;-83
2021/12/28 01:03:38;;;;;;;17.83;8.20;;;;;;;;;;4904795;29;20025;-85
2021/12/28 01:06:08;;;;;;;15.75;7.65;;;;;;;;;;4902507;29;20037;-84
2021/12/28 01:08:37;;;;;;;14.25;7.68;;;;;;;;;;4937826;23;20104;-83
2021/12/28 01:11:07;;;;;;;11.68;7.00;;;;;;;;;;4904885;29;20012;-84
2021/12/28 01:13:33;;;;;;;13.65;7.07;;;;;;;;;;5082283;23;20044;-83
2021/12/28 01:15:59;;;;;;;16.05;7.80;;;;;;;;;;4903814;29;20017;-84
2021/12/28 01:18:26;;;;;;;14.30;7.75;;;;;;;;;;4903635;29;20013;-83
2021/12/28 01:21:13;;;;;;;;;;;;;;;;;;;;;
2021/12/28 01:23:39;;;;;;;14.63;8.07;;;;;;;;;;4649195;23;14457949;-81
2021/12/28 01:26:05;;;;;;;91.85;52.42;;;;;;;;;;4900506;29;20382;-82
2021/12/28 01:28:31;;;;;;;118.85;56.92;;;;;;;;;;4898188;29;20113;-82
2021/12/28 01:31:00;;;;;;;33.83;18.92;;;;;;;;;;4898103;29;20025;-83
2021/12/28 01:33:25;;;;;;;;;;;;;;;;;;4901857;29;20132;-83
2021/12/28 01:36:00;;;;;;;13.07;7.13;;;;;;;;;;4904333;29;19896;-82
2021/12/28 01:38:29;;;;;;;18.58;8.73;;;;;;;;;;4903847;29;20040;-83
2021/12/28 01:40:59;;;;;;;17.67;8.00;;;;;;;;;;4971466;23;20020;-84
2021/12/28 01:43:29;;;;;;;18.02;8.00;;;;;;;;;;4922628;29;20017;-83
2021/12/28 01:46:01;;;;;;;15.57;8.13;;;;;;;;;;4923083;29;20016;-84
2021/12/28 01:48:31;;;;;;;17.13;8.38;;;;;;;;;;4930840;23;20109;-83
2021/12/28 01:58:45;;;;;;;19.90;8.88;;;;;;;;;;4991341;23;20041;-83
2021/12/28 02:01:19;;;;;;;19.30;9.20;;;;;;;;;;4903056;29;20085;-81
2021/12/28 02:03:47;;;;;;;16.50;8.73;;;;;;;;;;4903408;29;20032;-82
2021/12/28 02:06:18;;;;;;;19.40;10.13;;;;;;;;;;4903336;29;20045;-85
2021/12/28 02:08:49;;;;;;;20.48;9.00;;;;;;;;;;4904030;29;20031;-83
2021/12/28 02:11:18;;;;;;;19.17;9.35;;;;;;;;;;4903454;29;20009;-83
2021/12/28 02:13:46;;;;;;;17.88;9.00;;;;;;;;;;4884999;29;20013;-84
2021/12/28 02:16:21;;;;;;;;;;;;;;;;;;4885962;29;19998;-83
2021/12/28 02:18:50;;;;;;;17.73;9.32;;;;;;;;;;4885737;29;19896;-82
2021/12/28 02:21:18;;;;;;;18.98;9.45;;;;;;;;;;4904036;23;20032;-84
2021/12/28 02:23:49;;;;;;;19.75;8.25;;;;;;;;;;4941451;28;20028;-83
2021/12/28 02:26:17;;;;;;;21.50;8.23;;;;;;;;;;4941332;28;20024;-83
2021/12/28 02:28:45;;;;;;;19.40;9.30;;;;;;;;;;4941405;28;20019;-83
2021/12/28 02:31:10;;;;;;;18.33;8.95;;;;;;;;;;4901721;29;20025;-81
2021/12/28 02:33:39;;;;;;;19.88;8.07;;;;;;;;;;4897279;29;20021;-83
2021/12/28 02:36:07;;;;;;;;;;;;;;;;;;4905803;29;20080;-83
2021/12/28 02:38:36;;;;;;;16.75;7.78;;;;;;;;;;4907498;29;19912;-82
2021/12/28 02:41:09;;;;;;;17.63;7.47;;;;;;;;;;4907798;29;20014;-82
2021/12/28 02:43:34;;;;;;;15.75;7.63;;;;;;;;;;4910528;29;20020;-83
2021/12/28 02:46:06;;;;;;;13.40;7.15;;;;;;;;;;4919173;29;20037;-83
2021/12/28 02:48:42;;;;;;;14.20;7.25;;;;;;;;;;4907173;29;20009;-84
2021/12/28 02:51:18;;;;;;;16.67;7.72;;;;;;;;;;5145896;23;20028;-82
2021/12/28 02:56:20;;;;;;;14.77;6.95;;;;;;;;;;5168740;23;20067;-82
2021/12/28 03:01:32;;;;;;;13.00;6.32;;;;;;;;;;4993547;23;20057;-82
2021/12/28 03:04:03;;;;;;;12.57;6.45;;;;;;;;;;4907260;29;20025;-84
2021/12/28 03:06:33;;;;;;;12.13;7.07;;;;;;;;;;4906824;29;20065;-83
2021/12/28 03:09:02;;;;;;;11.82;6.45;;;;;;;;;;4907238;29;20025;-84
2021/12/28 03:11:28;;;;;;;11.77;6.35;;;;;;;;;;4906443;29;20009;-84
2021/12/28 03:13:59;;;;;;;11.05;6.35;;;;;;;;;;4907346;29;20040;-83
2021/12/28 03:16:25;;;;;;;12.23;6.65;;;;;;;;;;4907015;29;20006;-85
2021/12/28 03:18:51;;;;;;;16.33;7.30;;;;;;;;;;4906777;29;20005;-83
2021/12/28 03:21:20;;;;;;;11.77;5.70;;;;;;;;;;4907472;29;20002;-82
2021/12/28 03:23:54;;;;;;;;;;;;;;;;;;5166908;23;20048;-85
2021/12/28 03:26:23;;;;;;;11.55;6.63;;;;;;;;;;4906429;29;19899;-84
2021/12/28 03:28:48;;;;;;;;;;;;;;;;;;4906343;29;20052;-83
2021/12/28 03:31:17;;;;;;;13.43;5.80;;;;;;;;;;4903966;29;19903;-83
2021/12/28 03:33:48;;;;;;;12.35;6.72;;;;;;;;;;4906701;29;20008;-83
2021/12/28 03:36:15;;;;;;;12.25;6.28;;;;;;;;;;4905984;29;20014;-85
2021/12/28 03:41:16;;;;;;;11.35;6.10;;;;;;;;;;4903163;29;20045;-82
2021/12/28 03:43:44;;;;;;;13.32;5.63;;;;;;;;;;4906659;29;20028;-83
2021/12/28 03:46:10;;;;;;;20.13;8.95;;;;;;;;;;4906660;29;20040;-82
2021/12/28 03:48:39;;;;;;;13.40;6.78;;;;;;;;;;4890320;29;20009;-82
2021/12/28 03:56:17;;;;;;;18.77;10.20;;;;;;;;;;5197635;23;20372;-85
2021/12/28 04:01:23;;;;;;;12.65;6.40;;;;;;;;;;5046175;23;20521;-83
2021/12/28 04:03:56;;;;;;;9.32;5.10;;;;;;;;;;4899734;29;20081;-85
2021/12/28 04:06:25;;;;;;;11.32;5.22;;;;;;;;;;4900330;29;20073;-84
2021/12/28 04:08:56;;;;;;;10.45;4.97;;;;;;;;;;4905931;29;20069;-83
2021/12/28 04:16:29;;;;;;;9.38;5.05;;;;;;;;;;5267882;23;20053;-83
2021/12/28 04:18:55;;;;;;;12.48;5.57;;;;;;;;;;4905691;29;20032;-84
2021/12/28 04:21:24;;;;;;;9.95;4.95;;;;;;;;;;4905656;29;20009;-84
2021/12/28 04:23:50;;;;;;;11.38;5.25;;;;;;;;;;4905157;29;20025;-84
2021/12/28 04:26:19;;;;;;;13.52;6.18;;;;;;;;;;4906059;29;20016;-83
2021/12/28 04:28:45;;;;;;;12.10;6.13;;;;;;;;;;4905398;29;20009;-83
2021/12/28 04:33:47;;;;;;;11.60;5.90;;;;;;;;;;5168649;23;20128;-82
2021/12/28 04:36:14;;;;;;;12.85;5.65;;;;;;;;;;4934881;29;20020;-83
2021/12/28 04:38:41;;;;;;;14.13;6.78;;;;;;;;;;4931557;29;20024;-83
2021/12/28 04:41:11;;;;;;;15.32;6.57;;;;;;;;;;4919311;29;20069;-82
2021/12/28 04:43:38;;;;;;;12.93;6.35;;;;;;;;;;4924335;29;20016;-82
2021/12/28 04:46:06;;;;;;;14.90;7.13;;;;;;;;;;4920572;29;20043;-82
2021/12/28 04:48:35;;;;;;;15.13;7.10;;;;;;;;;;4924526;29;20053;-83
2021/12/28 04:51:04;;;;;;;14.48;6.75;;;;;;;;;;4924509;29;20084;-84
2021/12/28 04:56:00;;;;;;;15.50;7.35;;;;;;;;;;4903729;29;20048;-84
2021/12/28 04:58:35;;;;;;;12.80;6.25;;;;;;;;;;4905694;29;20001;-81
2021/12/28 05:01:03;;;;;;;13.48;7.43;;;;;;;;;;4905354;29;20068;-82
2021/12/28 05:03:29;;;;;;;16.73;7.78;;;;;;;;;;5204529;23;20041;-82
2021/12/28 05:06:20;;;;;;;13.20;6.35;;;;;;;;;;4981982;23;21360;-83
2021/12/28 05:08:49;;;;;;;15.45;7.22;;;;;;;;;;5784230;23;20161;31
2021/12/28 05:11:17;;;;;;;;;;;;;;;;;;4862734;29;20038;-84
2021/12/28 05:13:45;;;;;;;15.18;6.35;;;;;;;;;;4846056;29;19912;-82
2021/12/28 05:16:15;;;;;;;14.75;6.93;;;;;;;;;;4881353;23;21129;-83
2021/12/28 05:29:10;;;;;;;50.97;32.13;;;;;;;;;;5505847;23;20061;-82
2021/12/28 05:31:37;;;;;;;19.17;8.70;;;;;;;;;;4902088;29;20031;-85
2021/12/28 05:34:19;;;;;;;15.32;7.40;;;;;;;;;;5587275;23;20017;-85
2021/12/28 05:36:46;;;;;;;14.77;8.10;;;;;;;;;;5516879;23;20029;-84
2021/12/28 05:39:12;;;;;;;15.75;7.85;;;;;;;;;;4900057;29;20036;-84
2021/12/28 05:41:48;;;;;;;16.38;8.27;;;;;;;;;;4898052;29;20029;-82
2021/12/28 05:44:19;;;;;;;16.13;7.97;;;;;;;;;;4900419;29;20040;-83
2021/12/28 05:46:47;;;;;;;20.20;9.05;;;;;;;;;;4903878;29;20025;-83
2021/12/28 05:49:17;;;;;;;18.02;8.85;;;;;;;;;;4901168;29;20039;-83
2021/12/28 05:51:53;;;;;;;19.35;9.43;;;;;;;;;;4897376;29;20025;-82
2021/12/28 05:54:20;;;;;;;15.27;7.88;;;;;;;;;;4900618;29;20025;-83
2021/12/28 05:56:46;;;;;;;19.63;9.10;;;;;;;;;;4901382;29;20009;-83
2021/12/28 05:59:15;;;;;;;19.30;9.05;;;;;;;;;;4901508;29;20089;-83
2021/12/28 06:01:41;;;;;;;;;;;;;;;;;;4901409;29;20032;-83
2021/12/28 06:04:09;;;;;;;23.02;8.63;;;;;;;;;;4903601;29;19979;-83
2021/12/28 06:06:35;;;;;;;21.13;9.95;;;;;;;;;;4901869;29;20017;-86
2021/12/28 06:09:07;;;;;;;19.63;9.88;;;;;;;;;;4903082;29;20096;-83
2021/12/28 06:11:33;;;;;;;21.67;10.05;;;;;;;;;;4929717;23;21296;-82
2021/12/28 06:13:59;;;;;;;19.63;9.60;;;;;;;;;;4891606;29;20496;-82
2021/12/28 06:16:25;;;;;;;17.55;8.80;;;;;;;;;;4892486;29;20029;-82
2021/12/28 06:18:53;;;;;;;23.85;10.07;;;;;;;;;;4891129;29;20029;-81
2021/12/28 06:21:22;;;;;;;20.70;9.73;;;;;;;;;;4892792;29;20025;-82
2021/12/28 06:23:47;;;;;;;;;;;;;;;;;;4893902;29;20037;-84
2021/12/28 06:26:13;;;;;;;22.52;9.57;;;;;;;;;;4900286;29;19915;-83
2021/12/28 06:28:40;;;;;;;20.65;10.20;;;;;;;;;;4902587;29;20029;-85
2021/12/28 06:31:06;;;;;;;22.58;9.95;;;;;;;;;;4903427;29;20037;-82
2021/12/28 06:33:32;;;;;;;21.27;9.80;;;;;;;;;;4900788;29;19998;-84
2021/12/28 06:35:58;;;;;;;23.13;10.52;;;;;;;;;;4884214;29;20009;-82
2021/12/28 06:38:24;;;;;;;21.33;10.77;;;;;;;;;;5079145;23;20050;-83
2021/12/28 06:40:56;;;;;;;22.55;10.43;;;;;;;;;;4935042;29;20096;-82
2021/12/28 06:43:26;;;;;;;21.65;10.30;;;;;;;;;;4917639;29;20065;-83
2021/12/28 06:51:06;;;;;;;22.48;11.38;;;;;;;;;;5166215;23;20040;-84
2021/12/28 06:53:33;;;;;;;24.90;11.10;;;;;;;;;;4884579;29;20039;-84
2021/12/28 06:58:34;;;;;;;25.48;11.05;;;;;;;;;;5032927;23;20032;-84
2021/12/28 07:01:00;;;;;;;23.45;11.07;;;;;;;;;;4902890;29;20038;-84
2021/12/28 07:03:27;;;;;;;25.77;11.30;;;;;;;;;;5021173;23;20026;-83
2021/12/28 07:05:53;;;;;;;25.88;11.50;;;;;;;;;;4903845;29;20045;-85
2021/12/28 07:08:24;;;;;;;22.65;10.88;;;;;;;;;;4903181;29;20100;-83
2021/12/28 07:18:46;;;;;;;21.17;10.70;;;;;;;;;;5598747;23;20086;-83
2021/12/28 07:21:18;;;;;;;26.35;11.80;;;;;;;;;;4903434;29;20028;-84
2021/12/28 07:23:49;;;;;;;28.23;10.82;;;;;;;;;;4903854;29;20034;-84
2021/12/28 07:26:19;;;;;;;22.00;9.70;;;;;;;;;;4904873;29;20046;-84
2021/12/28 07:28:48;;;;;;;23.88;11.02;;;;;;;;;;4905461;29;20025;-84
2021/12/28 07:31:17;;;;;;;25.52;10.88;;;;;;;;;;4906098;29;20025;-84
2021/12/28 07:33:44;;;;;;;26.27;11.85;;;;;;;;;;4906322;29;20049;-82
2021/12/28 07:36:10;;;;;;;29.17;11.90;;;;;;;;;;4906710;29;20009;-84
2021/12/28 07:38:36;;;;;;;25.63;11.25;;;;;;;;;;4906907;29;20041;-84
2021/12/28 07:41:02;;;;;;;21.63;10.88;;;;;;;;;;4906390;29;20034;-84
2021/12/28 07:43:27;;;;;;;25.13;11.63;;;;;;;;;;4905981;29;20016;-81
2021/12/28 07:45:54;;;;;;;30.45;13.02;;;;;;;;;;4906118;29;20037;-83
2021/12/28 07:48:22;;;;;;;24.15;11.65;;;;;;;;;;4905903;29;20017;-84
2021/12/28 07:50:49;;;;;;;25.35;11.10;;;;;;;;;;4906175;29;20050;-83
2021/12/28 07:53:17;;;;;;;26.30;12.00;;;;;;;;;;4905759;29;20028;-83
2021/12/28 07:55:43;;;;;;;25.02;12.57;;;;;;;;;;4905953;29;20021;-84
2021/12/28 08:00:45;;;;;;;20.08;9.82;;;;;;;;;;5495518;23;20041;-83
2021/12/28 08:03:11;;;;;;;23.00;10.25;;;;;;;;;;4905975;29;20077;-85
2021/12/28 08:05:37;;;;;;;22.35;10.05;;;;;;;;;;4905996;29;20009;-82
2021/12/28 08:08:03;;;;;;;21.90;10.07;;;;;;;;;;4906212;29;20068;-83
2021/12/28 08:10:29;;;;;;;22.38;10.50;;;;;;;;;;4905701;29;20012;-84
2021/12/28 08:12:56;;;;;;;28.40;11.77;;;;;;;;;;4905982;29;20005;-83
2021/12/28 08:15:22;;;;;;;20.05;9.32;;;;;;;;;;4905799;29;20039;-83
2021/12/28 08:17:48;;;;;;;22.40;9.90;;;;;;;;;;4905505;29;20017;-84
2021/12/28 08:20:18;;;;;;;22.95;9.65;;;;;;;;;;4904802;29;20021;-82
2021/12/28 08:22:44;;;;;;;24.65;10.27;;;;;;;;;;4904141;29;20064;-83
2021/12/28 08:25:10;;;;;;;22.38;10.00;;;;;;;;;;4905088;29;20060;-84
2021/12/28 08:27:39;;;;;;;24.42;10.35;;;;;;;;;;4905249;29;20028;-84
2021/12/28 08:30:06;;;;;;;27.83;10.15;;;;;;;;;;4903947;29;20029;-83
2021/12/28 08:32:31;;;;;;;24.73;11.20;;;;;;;;;;4905071;29;20032;-83
2021/12/28 08:35:03;;;;;;;24.65;10.45;;;;;;;;;;4905308;29;20156;-83
2021/12/28 08:37:30;;;;;;;35.55;12.05;;;;;;;;;;4904374;29;20017;-83
2021/12/28 08:39:56;;;;;;;23.90;9.93;;;;;;;;;;4904710;29;20029;-83
2021/12/28 08:42:22;;;;;;;28.08;11.27;;;;;;;;;;4902868;29;20036;-83
2021/12/28 08:44:49;;;;;;;24.30;9.57;;;;;;;;;;4897237;29;20027;-83
2021/12/28 08:47:15;;;;;;;22.42;10.05;;;;;;;;;;4899432;29;20032;-81
2021/12/28 08:49:41;;;;;;;28.42;9.93;;;;;;;;;;4902698;29;20032;-83
2021/12/28 08:52:10;;;;;;;22.20;10.13;;;;;;;;;;4904019;29;20025;-83
2021/12/28 08:54:37;;;;;;;22.05;9.27;;;;;;;;;;4904689;29;20038;-84
2021/12/28 08:57:09;;;;;;;24.55;9.80;;;;;;;;;;4905261;29;20033;-84
2021/12/28 08:59:36;;;;;;;21.45;8.77;;;;;;;;;;4901847;29;20012;-82
2021/12/28 09:02:05;;;;;;;21.92;8.57;;;;;;;;;;4885100;29;20030;-83
2021/12/28 09:04:36;;;;;;;26.77;9.30;;;;;;;;;;4886238;29;20057;-85
2021/12/28 09:07:02;;;;;;;17.90;8.02;;;;;;;;;;4885367;29;20010;-83
2021/12/28 09:09:34;;;;;;;23.52;9.98;;;;;;;;;;4903432;29;20013;-83
2021/12/28 09:12:00;;;;;;;21.20;8.80;;;;;;;;;;4904456;29;20009;-82
2021/12/28 09:14:26;;;;;;;20.63;8.55;;;;;;;;;;4905018;29;20040;-84
2021/12/28 09:16:55;;;;;;;16.45;7.85;;;;;;;;;;4904963;29;20009;-82
2021/12/28 09:19:21;;;;;;;20.27;7.80;;;;;;;;;;4904633;29;20033;-83
2021/12/28 09:21:47;;;;;;;20.38;7.18;;;;;;;;;;4904482;29;20023;-84
2021/12/28 09:24:16;;;;;;;14.88;7.13;;;;;;;;;;4904788;29;20021;-83
2021/12/28 09:26:47;;;;;;;16.85;6.30;;;;;;;;;;4904499;29;20040;-82
2021/12/28 09:31:48;;;;;;;15.43;6.18;;;;;;;;;;5325219;23;20056;-83
2021/12/28 09:34:15;;;;;;;14.75;6.25;;;;;;;;;;4923140;29;20009;-84
2021/12/28 09:36:42;;;;;;;17.27;6.22;;;;;;;;;;4922746;29;20009;-83
2021/12/28 09:39:08;;;;;;;13.82;5.75;;;;;;;;;;4922245;29;20005;-83
2021/12/28 09:41:36;;;;;;;12.77;5.53;;;;;;;;;;4922215;29;20051;-83
2021/12/28 09:44:06;;;;;;;11.27;4.85;;;;;;;;;;4922230;29;20032;-84
2021/12/28 09:46:31;;;;;;;14.98;5.03;;;;;;;;;;4917192;29;20020;-83
2021/12/28 09:49:01;;;;;;;11.63;5.00;;;;;;;;;;4916720;29;20020;-82
2021/12/28 09:51:29;;;;;;;12.43;5.45;;;;;;;;;;4922439;29;20027;-83
2021/12/28 09:59:06;;;;;;;8.93;4.32;;;;;;;;;;5405246;23;20040;-83
2021/12/28 10:01:32;;;;;;;14.57;6.22;;;;;;;;;;4902647;29;20025;-82
2021/12/28 10:03:59;;;;;;;16.52;7.05;;;;;;;;;;4902843;29;20037;-82
2021/12/28 10:06:26;;;;;;;12.55;4.65;;;;;;;;;;4891316;29;20081;-81
2021/12/28 10:09:05;;;;;;;14.82;5.30;;;;;;;;;;4892730;29;20036;-82
2021/12/28 10:11:31;;;;;;;11.13;4.60;;;;;;;;;;4895758;29;20033;-81
2021/12/28 10:14:09;;;;;;;9.82;4.45;;;;;;;;;;4899656;29;20029;-82
2021/12/28 10:16:55;;;;;;;12.33;4.43;;;;;;;;;;4898600;29;20037;-83
2021/12/28 10:19:40;;;;;;;10.85;4.88;;;;;;;;;;4898280;29;20268;-82
2021/12/28 10:22:37;;;;;;;12.10;4.57;;;;;;;;;;4879670;29;20014;-82
2021/12/28 10:25:22;;;;;;;12.35;4.70;;;;;;;;;;4848907;29;20066;-82
2021/12/28 10:27:50;;;;;;;13.90;4.90;;;;;;;;;;4867048;29;20024;-82
2021/12/28 10:30:21;;;;;;;12.27;4.80;;;;;;;;;;4873380;29;20466;-78
2021/12/28 10:32:48;;;;;;;10.45;4.45;;;;;;;;;;4867161;29;20085;-77
2021/12/28 10:35:16;;;;;;;14.27;4.30;;;;;;;;;;4877183;29;20077;-80
2021/12/28 10:37:45;;;;;;;11.20;4.57;;;;;;;;;;4876389;29;20021;-80
2021/12/28 10:40:11;;;;;;;14.88;4.25;;;;;;;;;;4867188;29;20029;-80
2021/12/28 10:42:47;;;;;;;10.00;3.88;;;;;;;;;;4871250;29;20025;-79
2021/12/28 10:45:15;;;;;;;13.90;4.20;;;;;;;;;;4877965;29;20117;-80
2021/12/28 10:47:40;;;;;;;15.52;6.32;;;;;;;;;;4872492;29;20025;-79
2021/12/28 10:50:30;;;;;;;11.98;4.63;;;;;;;;;;4879734;29;20022;-79
2021/12/28 10:53:06;;;;;;;10.05;4.10;;;;;;;;;;4872955;29;20033;-79
2021/12/28 10:55:31;;;;;;;11.65;4.10;;;;;;;;;;4867247;29;20013;-78
2021/12/28 10:57:57;;;;;;;12.73;3.92;;;;;;;;;;4876093;29;20066;-78
2021/12/28 11:00:41;;;;;;;8.13;3.85;;;;;;;;;;4873296;29;20434;-79
2021/12/28 11:03:18;;;;;;;7.88;3.40;;;;;;;;;;4876414;29;20013;-84
2021/12/28 11:16:06;;;;;;;12.15;3.72;;;;;;;;;;5588638;23;20049;-83
2021/12/28 11:18:49;;;;;;;10.43;3.58;;;;;;;;;;4902990;29;20021;-84
2021/12/28 11:21:33;;;;;;;7.68;3.33;;;;;;;;;;4902349;29;20056;-82
2021/12/28 11:24:09;;;;;;;6.50;2.65;;;;;;;;;;4898744;29;20013;-84
2021/12/28 11:26:40;;;;;;;7.00;2.55;;;;;;;;;;4890015;29;20028;-82
2021/12/28 11:29:08;;;;;;;10.20;3.08;;;;;;;;;;4890098;29;20024;-82
2021/12/28 11:31:38;;;;;;;11.25;4.55;;;;;;;;;;4888816;29;20023;-83
2021/12/28 11:34:14;;;;;;;8.45;3.30;;;;;;;;;;4899225;29;20056;-83
2021/12/28 11:36:45;;;;;;;11.52;3.33;;;;;;;;;;4901120;29;20092;-83
2021/12/28 11:39:12;;;;;;;7.38;3.47;;;;;;;;;;5129453;23;20036;-85
2021/12/28 11:41:39;;;;;;;8.15;2.95;;;;;;;;;;4938900;28;20044;-82
2021/12/28 11:44:06;;;;;;;8.20;2.88;;;;;;;;;;4924296;29;20048;-84
2021/12/28 11:46:31;;;;;;;6.85;2.80;;;;;;;;;;4922219;29;20035;-82
2021/12/28 11:48:57;;;;;;;6.93;2.88;;;;;;;;;;4929615;23;20052;-84
2021/12/28 11:51:24;;;;;;;8.98;3.28;;;;;;;;;;4905501;29;20021;-83
2021/12/28 11:53:50;;;;;;;7.53;2.83;;;;;;;;;;4904763;29;20021;-82
2021/12/28 11:56:17;;;;;;;10.85;3.15;;;;;;;;;;4904480;29;20036;-83
2021/12/28 11:59:03;;;;;;;9.20;2.78;;;;;;;;;;4903948;29;20084;-84
2021/12/28 12:01:48;;;;;;;8.75;2.97;;;;;;;;;;4899849;29;20041;-84
2021/12/28 12:04:25;;;;;;;8.18;2.83;;;;;;;;;;4901513;29;20084;-80
2021/12/28 12:06:58;;;;;;;9.60;3.20;;;;;;;;;;4898809;29;20017;-81
2021/12/28 12:09:24;;;;;;;6.72;3.40;;;;;;;;;;4902591;29;20021;-83
2021/12/28 12:14:51;;;;;;;6.38;2.58;;;;;;;;;;4910807;29;20067;-81
2021/12/28 12:20:01;;;;;;;8.13;3.13;;;;;;;;;;4914642;29;20096;-81
2021/12/28 12:22:32;;;;;;;8.70;2.72;;;;;;;;;;4914897;29;20035;-81
2021/12/28 12:25:16;;;;;;;5.85;2.50;;;;;;;;;;4903449;29;20037;-82
2021/12/28 12:27:52;;;;;;;5.97;2.80;;;;;;;;;;4899499;29;20029;-82
2021/12/28 12:30:18;;;;;;;10.63;3.28;;;;;;;;;;4900621;29;20058;-82
2021/12/28 12:32:55;;;;;;;8.48;3.42;;;;;;;;;;4899906;29;20024;-82
2021/12/28 12:35:35;;;;;;;7.97;2.65;;;;;;;;;;4915656;29;20020;-84
2021/12/28 12:38:29;;;;;;;7.90;2.90;;;;;;;;;;4904633;29;20080;-82
2021/12/28 12:41:00;;;;;;;6.30;2.53;;;;;;;;;;4916324;29;20024;-82
2021/12/28 12:43:39;;;;;;;9.57;2.97;;;;;;;;;;4896591;29;20028;-82
2021/12/28 12:46:05;;;;;;;7.60;3.35;;;;;;;;;;4894620;29;20021;-81
2021/12/28 12:48:36;;;;;;;6.25;2.60;;;;;;;;;;4890762;29;20053;-81
2021/12/28 12:53:46;;;;;;;6.97;2.58;;;;;;;;;;4910601;29;20025;-82
2021/12/28 12:56:20;;;;;;;7.05;2.75;;;;;;;;;;4906718;29;20023;-82
2021/12/28 12:58:47;;;;;;;8.93;3.13;;;;;;;;;;4915717;29;20036;-83
2021/12/28 13:01:30;;;;;;;8.88;2.85;;;;;;;;;;4922424;29;20096;-82
2021/12/28 13:03:59;;;;;;;6.50;2.80;;;;;;;;;;4922928;29;20044;-82
2021/12/28 13:06:40;;;;;;;5.93;2.75;;;;;;;;;;4921178;29;20009;-83
2021/12/28 13:09:09;;;;;;;7.35;2.72;;;;;;;;;;4922018;29;20021;-83
2021/12/28 13:11:36;;;;;;;5.20;2.20;;;;;;;;;;4921558;29;20004;-83
2021/12/28 13:14:02;;;;;;;5.82;2.30;;;;;;;;;;4922054;29;20023;-82
2021/12/28 13:16:27;;;;;;;6.72;2.53;;;;;;;;;;4903205;29;20063;-77
2021/12/28 13:19:06;;;;;;;6.32;2.40;;;;;;;;;;4897063;29;20025;-77
2021/12/28 13:21:31;;;;;;;6.45;2.33;;;;;;;;;;4887534;29;20485;-78
2021/12/28 13:24:10;;;;;;;5.82;2.83;;;;;;;;;;4888051;29;20039;-78
2021/12/28 13:26:42;;;;;;;4.95;2.25;;;;;;;;;;4899298;29;20028;-82
2021/12/28 13:29:10;;;;;;;4.80;2.00;;;;;;;;;;4915233;29;20032;-83
2021/12/28 13:31:36;;;;;;;6.95;2.90;;;;;;;;;;4913577;29;20024;-83
2021/12/28 13:34:02;;;;;;;2.75;1.55;;;;;;;;;;4911127;29;20088;-84
2021/12/28 13:36:29;;;;;;;4.55;1.70;;;;;;;;;;4919019;29;20027;-82
2021/12/28 13:39:08;;;;;;;2.95;1.55;;;;;;;;;;4916647;29;20029;-83
2021/12/28 13:41:36;;;;;;;;;;;;;;;;;;4919440;29;20029;-83
2021/12/28 13:44:04;;;;;;;2.90;1.50;;;;;;;;;;4918921;29;20362;-84
2021/12/28 13:46:30;;;;;;;3.60;2.35;;;;;;;;;;4907198;29;20033;-83
2021/12/28 13:48:59;;;;;;;4.32;1.88;;;;;;;;;;4903303;29;20037;-83
2021/12/28 13:51:27;;;;;;;4.28;2.30;;;;;;;;;;4908576;29;20024;-81
2021/12/28 13:53:55;;;;;;;5.03;2.00;;;;;;;;;;4899020;29;20033;-84
2021/12/28 13:56:21;;;;;;;;;;;;;;;;;;4899641;29;20485;-83
2021/12/28 13:58:49;;;;;;;5.43;2.20;;;;;;;;;;4906711;29;19937;-83
2021/12/28 14:01:20;;;;;;;3.72;1.65;;;;;;;;;;4904550;29;20048;-83
2021/12/28 14:04:06;;;;;;;3.97;1.73;;;;;;;;;;4885179;29;20100;-76
2021/12/28 14:06:33;;;;;;;4.35;1.92;;;;;;;;;;4893003;29;20108;-79
2021/12/28 14:09:02;;;;;;;4.53;1.90;;;;;;;;;;4892777;29;20112;-79
2021/12/28 14:11:38;;;;;;;5.75;1.80;;;;;;;;;;4883949;29;20032;-79
2021/12/28 14:14:14;;;;;;;3.33;1.77;;;;;;;;;;4882180;29;20028;-80
2021/12/28 14:16:57;;;;;;;3.35;1.70;;;;;;;;;;4892632;29;20495;-80
2021/12/28 14:19:24;;;;;;;2.95;1.33;;;;;;;;;;4908356;29;20009;-82
2021/12/28 14:21:50;;;;;;;6.78;2.40;;;;;;;;;;4916611;29;20048;-83
2021/12/28 14:24:17;;;;;;;3.00;1.70;;;;;;;;;;4903427;29;20045;-83
2021/12/28 14:26:47;;;;;;;3.85;1.70;;;;;;;;;;4909165;29;20055;-83
2021/12/28 14:29:18;;;;;;;3.15;1.55;;;;;;;;;;4904811;29;20029;-83
2021/12/28 14:31:48;;;;;;;5.03;1.55;;;;;;;;;;4902308;29;20029;-84
2021/12/28 14:34:15;;;;;;;3.33;1.23;;;;;;;;;;4912340;29;20033;-83
2021/12/28 14:36:47;;;;;;;3.08;1.40;;;;;;;;;;4901454;29;20044;-83
2021/12/28 14:39:14;;;;;;;2.63;1.20;;;;;;;;;;4904275;29;20085;-82
2021/12/28 14:41:41;;;;;;;4.30;1.93;;;;;;;;;;4899836;29;20029;-84
2021/12/28 14:44:12;;;;;;;2.53;1.20;;;;;;;;;;4918702;29;20084;-83
2021/12/28 14:46:41;;;;;;;7.53;1.33;;;;;;;;;;4917855;29;20047;-84
2021/12/28 14:49:14;;;;;;;3.92;1.40;;;;;;;;;;4915286;29;20025;-82
2021/12/28 14:51:42;;;;;;;3.70;1.75;;;;;;;;;;4906983;29;20108;-81
2021/12/28 15:05:28;;;;;;;5.60;2.22;;;;;;;;;;4958665;23;20060;-83
2021/12/28 15:07:55;;;;;;;2.35;1.30;;;;;;;;;;4902697;29;20032;-83
2021/12/28 15:10:21;;;;;;;3.42;1.60;;;;;;;;;;4902627;29;20017;-83
2021/12/28 15:12:49;;;;;;;2.95;1.50;;;;;;;;;;4902001;29;20042;-83
2021/12/28 15:15:17;;;;;;;3.13;1.50;;;;;;;;;;4903219;29;20033;-83
2021/12/28 15:17:42;;;;;;;2.47;1.30;;;;;;;;;;4902917;29;20291;-82
2021/12/28 15:20:12;;;;;;;4.35;1.67;;;;;;;;;;4902965;29;20076;-83
2021/12/28 15:25:15;;;;;;;2.95;1.33;;;;;;;;;;5666008;23;20054;-82
2021/12/28 15:27:46;;;;;;;3.40;1.50;;;;;;;;;;5108449;23;20016;-82
2021/12/28 15:30:17;;;;;;;3.15;1.42;;;;;;;;;;4883825;29;20029;-83
2021/12/28 15:32:47;;;;;;;3.45;1.40;;;;;;;;;;5207642;23;20020;-83
2021/12/28 15:35:14;;;;;;;3.47;1.40;;;;;;;;;;4902401;29;20021;-82
2021/12/28 15:37:40;;;;;;;4.60;1.80;;;;;;;;;;4903074;29;20013;-83
2021/12/28 15:40:08;;;;;;;3.13;1.60;;;;;;;;;;4905657;29;20093;-83
2021/12/28 15:42:37;;;;;;;7.65;1.98;;;;;;;;;;4905428;29;20021;-83
2021/12/28 15:45:05;;;;;;;3.42;1.50;;;;;;;;;;4900491;29;20025;-83
2021/12/28 15:47:31;;;;;;;3.30;1.60;;;;;;;;;;4904020;29;20021;-83
2021/12/28 15:49:59;;;;;;;2.67;1.38;;;;;;;;;;4906451;29;20029;-83
2021/12/28 15:52:25;;;;;;;3.70;1.80;;;;;;;;;;4895895;29;20010;-84
2021/12/28 15:54:51;;;;;;;5.10;1.98;;;;;;;;;;4886938;29;20024;-85
2021/12/28 15:57:21;;;;;;;3.67;1.63;;;;;;;;;;4887823;29;20020;-83
2021/12/28 15:59:50;;;;;;;3.90;1.48;;;;;;;;;;4905261;23;20033;-83
2021/12/28 16:02:17;;;;;;;4.90;1.42;;;;;;;;;;4887389;29;20012;-83
2021/12/28 16:09:54;;;;;;;3.55;1.88;;;;;;;;;;5389948;23;20041;-83
2021/12/28 16:17:33;;;;;;;5.68;2.10;;;;;;;;;;5429669;23;20041;-83
2021/12/28 16:22:34;;;;;;;6.88;2.75;;;;;;;;;;5091086;23;20318;-84
2021/12/28 16:25:01;;;;;;;4.20;1.80;;;;;;;;;;5218740;23;20049;-83
2021/12/28 16:35:13;;;;;;;2.78;1.30;;;;;;;;;;5547138;23;20036;-84
2021/12/28 16:40:15;;;;;;;4.50;2.22;;;;;;;;;;5354681;23;20175;-84
2021/12/28 16:42:45;;;;;;;4.28;2.53;;;;;;;;;;4886467;29;20005;-84
2021/12/28 16:50:26;;;;;;;4.93;1.30;;;;;;;;;;5278338;23;20376;-83
2021/12/28 16:52:57;;;;;;;3.88;1.60;;;;;;;;;;4904595;29;20025;-82
2021/12/28 16:55:25;;;;;;;5.57;1.48;;;;;;;;;;5315869;23;20061;-83
2021/12/28 17:08:29;;;;;;;3.67;1.23;;;;;;;;;;5081353;23;20094;-84
2021/12/28 17:11:02;;;;;;;3.90;1.58;;;;;;;;;;5360889;23;20373;-83
2021/12/28 17:13:28;;;;;;;4.75;1.85;;;;;;;;;;4893251;29;20062;-82
2021/12/28 17:15:56;;;;;;;4.65;2.58;;;;;;;;;;4886514;29;20006;-82
2021/12/28 17:18:24;;;;;;;6.85;3.05;;;;;;;;;;4885497;29;20029;-83
2021/12/28 17:20:59;;;;;;;7.37;3.37;;;;;;;;;;4881829;29;20025;-82
2021/12/28 17:23:24;;;;;;;5.90;2.42;;;;;;;;;;5054387;23;20037;-84
2021/12/28 17:25:57;;;;;;;5.32;1.90;;;;;;;;;;4904505;29;20025;-84
2021/12/28 17:33:35;;;;;;;7.10;2.33;;;;;;;;;;5049596;23;20069;-84
2021/12/28 17:36:04;;;;;;;5.07;2.20;;;;;;;;;;5036785;23;20377;-84